Time;durP1;ratioP1;P1;durP2;ratioP2;P2;SDS_P1;SDS_P2;PMS_P1;PMS_P2;Temp;Humidity;BMP_temperature;BMP_pressure;BME280_temperature;BME280_humidity;BME280_pressure;Samples;Min_cycle;Max_cycle;Signal;HPM_P1;HPM_P2
2021/11/30 00:01:45;;;;;;;7.78;4.43;;;;;;;9.20;51.08;100790.75;5056394;28;20064;-78
2021/11/30 00:04:13;;;;;;;6.95;4.45;;;;;;;9.20;50.69;100793.47;5055506;28;20545;-79
2021/11/30 00:06:41;;;;;;;7.10;4.35;;;;;;;9.19;50.47;100795.31;5064461;28;20122;-79
2021/11/30 00:12:13;;;;;;;7.38;4.57;;;;;;;9.18;50.86;100793.56;5058224;28;20683;-78
2021/11/30 00:14:41;;;;;;;9.13;4.90;;;;;;;9.16;50.64;100790.06;5072982;28;20052;-78
2021/11/30 00:17:09;;;;;;;8.93;5.15;;;;;;;9.19;50.80;100786.31;5045922;28;20110;-78
2021/11/30 00:19:36;;;;;;;8.38;5.13;;;;;;;9.17;50.72;100791.81;5054749;28;20107;-78
2021/11/30 00:22:04;;;;;;;9.23;5.07;;;;;;;9.17;50.75;100791.81;5054039;28;20109;-78
2021/11/30 00:24:31;;;;;;;9.30;5.38;;;;;;;9.15;50.50;100774.78;5049849;28;20051;-78
2021/11/30 00:26:59;;;;;;;10.60;6.03;;;;;;;9.17;50.44;100778.28;5052967;28;20138;-78
2021/11/30 00:29:26;;;;;;;10.50;5.88;;;;;;;9.16;50.42;100784.66;5070248;28;20495;-78
2021/11/30 00:31:53;;;;;;;9.50;5.72;;;;;;;9.15;50.28;100789.19;5050008;28;20106;-78
2021/11/30 00:34:20;;;;;;;11.20;6.05;;;;;;;9.13;50.33;100784.84;5050333;28;20129;-78
2021/11/30 00:36:48;;;;;;;9.65;5.93;;;;;;;9.12;50.53;100786.69;5055081;28;20061;-77
2021/11/30 00:39:14;;;;;;;11.38;6.22;;;;;;;9.10;50.53;100772.38;5067819;28;20048;-77
2021/11/30 00:41:47;;;;;;;10.18;5.85;;;;;;;9.10;50.29;100785.91;5057327;28;20056;-78
2021/11/30 00:44:15;;;;;;;10.38;5.25;;;;;;;9.06;50.47;100786.19;5068850;28;20388;-78
2021/11/30 00:46:44;;;;;;;9.95;6.00;;;;;;;9.11;50.20;100789.50;5051797;28;20085;-78
2021/11/30 00:49:11;;;;;;;10.52;5.78;;;;;;;9.08;50.36;100797.78;5063691;28;20128;-78
2021/11/30 00:51:42;;;;;;;11.45;6.20;;;;;;;9.06;50.20;100791.59;5062181;28;20672;-77
2021/11/30 00:54:10;;;;;;;7.85;5.35;;;;;;;9.05;50.13;100781.75;5064139;28;20460;-77
2021/11/30 00:56:39;;;;;;;8.38;5.47;;;;;;;9.06;50.08;100788.88;5052355;28;20057;-77
2021/11/30 00:59:06;;;;;;;8.48;6.00;;;;;;;9.04;50.23;100780.00;5070605;28;20056;-77
2021/11/30 01:01:34;;;;;;;9.77;6.00;;;;;;;9.03;50.26;100772.84;5057082;28;20102;-78
2021/11/30 01:04:05;;;;;;;10.63;5.88;;;;;;;9.04;50.28;100786.31;5071559;28;20048;-78
2021/11/30 01:06:34;;;;;;;9.50;5.75;;;;;;;9.02;50.03;100771.09;5058609;28;20045;-78
2021/11/30 01:09:03;;;;;;;9.25;5.60;;;;;;;9.01;50.01;100763.94;5048151;28;20045;-77
2021/11/30 01:11:30;;;;;;;12.80;5.93;;;;;;;8.98;50.06;100761.41;5043564;28;20077;-77
2021/11/30 01:13:58;;;;;;;9.95;5.90;;;;;;;9.00;49.98;100751.38;5062138;28;20048;-78
2021/11/30 01:16:24;;;;;;;10.25;5.60;;;;;;;8.97;49.91;100754.28;5038991;28;20045;-77
2021/11/30 01:18:51;;;;;;;10.40;5.80;;;;;;;8.95;50.16;100746.25;5061588;28;20063;-77
2021/11/30 01:21:18;;;;;;;11.07;5.60;;;;;;;8.95;50.10;100743.53;5048843;28;20052;-78
2021/11/30 01:23:44;;;;;;;11.18;5.43;;;;;;;8.96;50.14;100739.00;5057009;28;20106;-77
2021/11/30 01:26:11;;;;;;;11.07;5.72;;;;;;;8.96;49.95;100744.41;5047961;28;20092;-77
2021/11/30 01:28:38;;;;;;;12.30;5.68;;;;;;;8.97;50.02;100740.75;5074031;28;20488;-77
2021/11/30 01:31:04;;;;;;;11.50;5.60;;;;;;;8.95;50.00;100740.84;5047249;28;20523;-77
2021/11/30 01:33:35;;;;;;;13.65;6.95;;;;;;;8.93;49.96;100737.34;5062575;28;20055;-78
2021/11/30 01:36:03;;;;;;;10.88;5.35;;;;;;;8.94;50.04;100736.38;5045133;28;20084;-78
2021/11/30 01:38:32;;;;;;;9.75;4.70;;;;;;;8.92;49.88;100730.19;5043953;28;20483;-78
2021/11/30 01:41:01;;;;;;;13.60;5.38;;;;;;;8.93;49.79;100737.34;5053253;28;20094;-78
2021/11/30 01:43:36;;;;;;;10.10;5.35;;;;;;;8.93;49.89;100717.50;5068639;28;20045;-78
2021/11/30 01:46:12;;;;;;;9.65;4.90;;;;;;;8.92;49.86;100722.06;5061027;28;20049;-78
2021/11/30 01:51:27;;;;;;;9.98;4.70;;;;;;;8.92;49.82;100722.06;5058687;28;20072;-78
2021/11/30 01:53:55;;;;;;;10.93;5.20;;;;;;;8.94;49.68;100724.66;5060163;28;20045;-77
2021/11/30 01:56:24;;;;;;;9.20;4.32;;;;;;;8.92;49.63;100711.22;5062972;28;20518;-77
2021/11/30 01:58:52;;;;;;;8.77;4.55;;;;;;;8.95;49.57;100718.28;5076992;28;20047;-77
2021/11/30 02:01:19;;;;;;;9.13;4.55;;;;;;;8.95;49.90;100710.16;5042577;28;20091;-77
2021/11/30 02:03:46;;;;;;;10.38;5.00;;;;;;;8.93;49.44;100707.56;5047533;28;20407;-77
2021/11/30 02:06:13;;;;;;;10.07;4.10;;;;;;;8.93;49.25;100685.91;5052763;28;20076;-78
2021/11/30 02:08:40;;;;;;;9.35;4.50;;;;;;;8.94;49.34;100700.31;5066310;28;20044;-77
2021/11/30 02:11:07;;;;;;;10.10;4.40;;;;;;;8.94;49.31;100686.78;5046724;28;20083;-77
2021/11/30 02:13:34;;;;;;;6.53;3.70;;;;;;;8.94;49.27;100684.94;5044986;28;20090;-77
2021/11/30 02:16:02;;;;;;;7.30;3.78;;;;;;;8.92;49.34;100684.16;5058283;28;20044;-77
2021/11/30 02:18:29;;;;;;;7.03;3.60;;;;;;;8.94;49.44;100684.06;5061274;28;20110;-77
2021/11/30 02:20:58;;;;;;;7.47;3.58;;;;;;;8.95;49.09;100667.72;5066830;28;20040;-77
2021/11/30 02:26:06;;;;;;;6.97;3.30;;;;;;;8.93;49.00;100655.25;5066780;28;20098;-78
2021/11/30 02:28:32;;;;;;;6.78;3.13;;;;;;;8.94;49.35;100651.56;5047250;28;20295;-78
2021/11/30 02:30:59;;;;;;;6.68;3.22;;;;;;;8.94;49.25;100643.44;5063098;28;20064;-78
2021/11/30 02:33:26;;;;;;;6.40;2.95;;;;;;;8.95;49.43;100637.06;5052512;28;20533;-78
2021/11/30 02:35:53;;;;;;;6.50;3.17;;;;;;;8.95;49.34;100632.53;5047601;28;20045;-78
2021/11/30 02:38:21;;;;;;;6.57;2.88;;;;;;;8.97;49.42;100627.00;5053847;28;20484;-78
2021/11/30 02:40:47;;;;;;;5.47;2.80;;;;;;;8.95;49.15;100628.94;5048744;28;20564;-78
2021/11/30 02:43:14;;;;;;;8.00;3.35;;;;;;;8.95;49.42;100627.09;5056779;28;20158;-78
2021/11/30 02:45:41;;;;;;;6.45;2.90;;;;;;;8.95;49.41;100619.00;5070133;28;20099;-78
2021/11/30 02:48:08;;;;;;;6.38;3.10;;;;;;;8.95;49.69;100608.16;5051108;28;20057;-78
2021/11/30 02:50:51;;;;;;;5.97;3.50;;;;;;;8.95;49.33;100597.31;5063675;28;20052;-78
2021/11/30 02:53:21;;;;;;;5.63;2.88;;;;;;;8.92;49.33;100593.94;5055047;28;20083;-78
2021/11/30 02:55:47;;;;;;;5.97;2.92;;;;;;;8.93;49.39;100583.00;5079430;28;20109;-78
2021/11/30 02:58:15;;;;;;;4.65;2.70;;;;;;;8.92;49.21;100586.69;5078126;28;20041;-78
2021/11/30 03:00:42;;;;;;;4.93;2.92;;;;;;;8.92;49.71;100583.09;5059071;28;20060;-78
2021/11/30 03:03:09;;;;;;;6.40;2.92;;;;;;;8.89;49.77;100567.94;5071240;28;20051;-78
2021/11/30 03:05:35;;;;;;;6.10;2.45;;;;;;;8.87;49.63;100572.59;5071927;28;20522;-78
2021/11/30 03:08:02;;;;;;;4.65;2.50;;;;;;;8.86;49.75;100554.59;5066761;28;20131;-78
2021/11/30 03:10:29;;;;;;;5.45;2.95;;;;;;;8.86;49.80;100548.31;5057099;28;20701;-78
2021/11/30 03:12:55;;;;;;;5.35;2.42;;;;;;;8.87;49.80;100552.75;5066569;28;20069;-78
2021/11/30 03:15:24;;;;;;;6.00;2.92;;;;;;;8.88;49.99;100549.97;5060021;28;20087;-78
2021/11/30 03:17:53;;;;;;;4.28;2.22;;;;;;;8.86;49.89;100538.34;5052211;28;20060;-78
2021/11/30 03:20:20;;;;;;;4.03;2.33;;;;;;;8.85;50.10;100527.63;5071620;28;20048;-78
2021/11/30 03:22:47;;;;;;;5.32;2.30;;;;;;;8.84;50.09;100521.34;5065058;28;20048;-79
2021/11/30 03:25:15;;;;;;;5.07;2.30;;;;;;;8.84;50.07;100507.81;5051143;28;20084;-79
2021/11/30 03:27:42;;;;;;;4.18;2.17;;;;;;;8.84;50.09;100506.94;5057866;28;20535;-78
2021/11/30 03:30:10;;;;;;;4.85;2.45;;;;;;;8.86;50.16;100500.47;5062626;28;20138;-78
2021/11/30 03:35:23;;;;;;;4.80;2.40;;;;;;;8.82;50.21;100492.63;5073575;28;20494;-78
2021/11/30 03:37:50;;;;;;;6.10;2.67;;;;;;;8.85;50.13;100490.59;5068998;28;20132;-78
2021/11/30 03:40:17;;;;;;;3.83;2.50;;;;;;;8.82;50.09;100476.38;5048940;28;20606;-79
2021/11/30 03:42:44;;;;;;;4.15;2.10;;;;;;;8.80;50.28;100475.63;5058009;28;20065;-79
2021/11/30 03:45:13;;;;;;;5.63;2.60;;;;;;;8.79;50.05;100466.66;5064693;28;20049;-79
2021/11/30 03:47:40;;;;;;;5.13;2.45;;;;;;;8.78;50.14;100467.59;5065710;28;20092;-79
2021/11/30 03:50:08;;;;;;;4.07;2.20;;;;;;;8.78;50.16;100456.78;5074291;28;20053;-79
2021/11/30 03:52:36;;;;;;;4.18;2.10;;;;;;;8.76;50.34;100462.28;5055592;28;20048;-79
2021/11/30 03:55:04;;;;;;;4.63;2.10;;;;;;;8.76;50.73;100458.72;5052983;28;20695;-79
2021/11/30 03:57:50;;;;;;;4.75;2.47;;;;;;;8.73;50.56;100454.34;5060462;28;20053;-78
2021/11/30 04:00:17;;;;;;;4.50;2.35;;;;;;;8.75;50.67;100449.72;5064776;28;20147;-78
2021/11/30 04:02:44;;;;;;;4.53;2.45;;;;;;;8.73;50.70;100443.53;5045948;28;20089;-79
2021/11/30 04:05:11;;;;;;;3.45;2.17;;;;;;;8.73;50.77;100440.81;5036225;28;20047;-79
2021/11/30 04:07:37;;;;;;;4.00;2.45;;;;;;;8.73;51.17;100432.72;5045111;28;20128;-79
2021/11/30 04:10:05;;;;;;;4.95;2.20;;;;;;;8.75;51.08;100430.78;5053850;28;20444;-79
2021/11/30 04:12:31;;;;;;;3.22;1.95;;;;;;;8.75;50.98;100432.63;5029975;28;20056;-78
2021/11/30 04:14:58;;;;;;;3.63;1.80;;;;;;;8.74;51.29;100431.75;5066207;28;20040;-79
2021/11/30 04:17:25;;;;;;;5.43;2.13;;;;;;;8.75;50.97;100428.06;5050016;28;20070;-79
2021/11/30 04:19:52;;;;;;;4.57;2.50;;;;;;;8.75;51.28;100421.78;5059496;28;20136;-79
2021/11/30 04:22:23;;;;;;;3.35;2.08;;;;;;;8.77;51.57;100414.44;5049756;28;20048;-79
2021/11/30 04:24:49;;;;;;;5.93;2.50;;;;;;;8.80;51.33;100418.78;5049322;28;20071;-79
2021/11/30 04:27:36;;;;;;;4.30;2.60;;;;;;;8.80;51.32;100411.53;5068100;28;20249;-79
2021/11/30 04:30:05;;;;;;;4.30;2.50;;;;;;;8.82;51.47;100403.28;5001198;28;20584;-79
2021/11/30 04:32:32;;;;;;;4.25;2.22;;;;;;;8.82;51.44;100393.34;4995325;28;20170;-79
2021/11/30 04:34:59;;;;;;;4.68;2.38;;;;;;;8.83;51.23;100386.09;5010939;28;20049;-79
2021/11/30 04:37:26;;;;;;;2.90;1.98;;;;;;;8.82;51.90;100392.47;4999165;28;20193;-79
2021/11/30 04:39:52;;;;;;;3.53;2.13;;;;;;;8.83;51.60;100394.19;4990776;28;20038;-79
2021/11/30 04:42:21;;;;;;;3.42;2.00;;;;;;;8.85;51.54;100384.16;5002467;28;20085;-79
2021/11/30 04:44:52;;;;;;;2.97;1.90;;;;;;;8.87;51.66;100382.22;5007222;28;20108;-79
2021/11/30 04:47:18;;;;;;;3.65;1.77;;;;;;;8.87;51.80;100371.38;5008216;28;20487;-79
2021/11/30 04:50:04;;;;;;;2.95;1.80;;;;;;;8.88;51.76;100378.53;5007325;28;20152;-79
2021/11/30 04:52:32;;;;;;;3.10;1.83;;;;;;;8.88;51.88;100374.00;4992166;28;20116;-79
2021/11/30 04:54:59;;;;;;;3.45;2.00;;;;;;;8.90;52.21;100382.00;5001726;28;20042;-79
2021/11/30 04:57:26;;;;;;;4.15;2.13;;;;;;;8.92;52.03;100369.22;5003554;28;20205;-78
2021/11/30 04:59:53;;;;;;;3.47;2.03;;;;;;;8.94;52.05;100370.00;5014479;28;20054;-78
2021/11/30 05:02:21;;;;;;;3.13;2.00;;;;;;;8.95;52.28;100361.78;4992986;28;20140;-79
2021/11/30 05:04:48;;;;;;;2.90;1.70;;;;;;;8.97;52.25;100358.97;5004295;28;20104;-79
2021/11/30 05:07:16;;;;;;;3.53;1.90;;;;;;;8.99;52.39;100360.59;5031117;28;20056;-79
2021/11/30 05:09:44;;;;;;;5.07;2.10;;;;;;;9.01;52.29;100353.22;5056315;28;20049;-79
2021/11/30 05:12:11;;;;;;;3.28;1.90;;;;;;;9.02;52.23;100336.00;5067583;28;20132;-80
2021/11/30 05:14:38;;;;;;;3.72;1.80;;;;;;;9.05;52.48;100354.78;5052972;28;20500;-80
2021/11/30 05:17:05;;;;;;;3.17;1.83;;;;;;;9.09;52.58;100350.00;5047769;28;20087;-80
2021/11/30 05:19:32;;;;;;;3.10;1.85;;;;;;;9.08;52.59;100349.13;5064239;28;20053;-81
2021/11/30 05:21:59;;;;;;;3.78;1.70;;;;;;;9.13;52.50;100346.13;5049667;28;20068;-80
2021/11/30 05:24:25;;;;;;;3.28;2.00;;;;;;;9.15;52.48;100323.34;5057953;28;20044;-80
2021/11/30 05:26:54;;;;;;;2.55;1.60;;;;;;;9.19;52.39;100321.31;5057523;28;20133;-80
2021/11/30 05:29:21;;;;;;;3.40;1.90;;;;;;;9.20;52.42;100323.03;5055947;28;20067;-80
2021/11/30 05:31:47;;;;;;;2.90;1.88;;;;;;;9.21;52.74;100324.78;5059123;28;20049;-79
2021/11/30 05:34:14;;;;;;;2.70;1.73;;;;;;;9.24;52.86;100318.25;5059510;28;20076;-80
2021/11/30 05:36:41;;;;;;;3.00;1.90;;;;;;;9.27;52.89;100312.66;5047713;28;20561;-79
2021/11/30 05:39:07;;;;;;;3.15;1.88;;;;;;;9.29;52.84;100311.56;5058819;28;20054;-79
2021/11/30 05:41:34;;;;;;;3.35;1.92;;;;;;;9.34;52.84;100305.81;5051984;28;20065;-79
2021/11/30 05:44:00;;;;;;;3.05;1.85;;;;;;;9.35;52.96;100319.25;5058582;28;20140;-80
2021/11/30 05:46:27;;;;;;;3.05;1.90;;;;;;;9.37;53.12;100313.75;5044616;28;20458;-80
2021/11/30 05:48:54;;;;;;;3.35;1.88;;;;;;;9.39;53.09;100299.09;5060988;28;20067;-81
2021/11/30 05:51:21;;;;;;;3.63;2.00;;;;;;;9.41;53.01;100305.28;5052907;28;20093;-81
2021/11/30 05:53:47;;;;;;;3.20;2.00;;;;;;;9.45;53.07;100308.66;5043272;28;20094;-81
2021/11/30 05:56:14;;;;;;;2.95;2.13;;;;;;;9.47;53.11;100301.28;5055349;28;20049;-81
2021/11/30 05:58:41;;;;;;;3.08;2.10;;;;;;;9.50;53.30;100301.91;5045340;28;20544;-81
2021/11/30 06:01:20;;;;;;;2.95;1.98;;;;;;;9.52;53.39;100305.38;5045643;28;20056;-81
2021/11/30 06:06:19;;;;;;;3.40;2.17;;;;;;;9.56;53.19;100289.75;5067972;28;20064;-80
2021/11/30 06:08:46;;;;;;;2.75;1.90;;;;;;;9.59;53.55;100294.97;5066336;28;20057;-80
2021/11/30 06:11:13;;;;;;;2.53;1.90;;;;;;;9.61;53.58;100290.31;5066023;28;20088;-79
2021/11/30 06:13:40;;;;;;;3.45;2.30;;;;;;;9.65;53.48;100290.94;5055536;28;20492;-80
2021/11/30 06:16:06;;;;;;;3.00;2.20;;;;;;;9.67;53.69;100289.88;5056206;28;20132;-80
2021/11/30 06:18:33;;;;;;;3.08;2.20;;;;;;;9.71;53.68;100287.81;5053425;28;20574;-79
2021/11/30 06:20:59;;;;;;;3.53;2.30;;;;;;;9.74;53.35;100284.84;5068395;28;20088;-79
2021/11/30 06:23:26;;;;;;;3.35;2.10;;;;;;;9.77;53.65;100298.19;5058311;28;20082;-80
2021/11/30 06:25:53;;;;;;;3.15;2.17;;;;;;;9.77;53.75;100277.38;5039377;28;20083;-79
2021/11/30 06:28:19;;;;;;;3.88;2.33;;;;;;;9.80;53.51;100279.84;5067389;28;20041;-80
2021/11/30 06:30:46;;;;;;;3.30;2.17;;;;;;;9.83;53.66;100290.47;5087365;28;20052;-80
2021/11/30 06:33:13;;;;;;;3.15;2.20;;;;;;;9.86;53.68;100295.69;5067274;28;20140;-79
2021/11/30 06:35:39;;;;;;;3.70;2.40;;;;;;;9.88;53.76;100293.72;5048187;28;20037;-79
2021/11/30 06:38:06;;;;;;;4.03;2.45;;;;;;;9.92;53.92;100291.66;5043124;28;20080;-80
2021/11/30 06:40:33;;;;;;;3.85;2.42;;;;;;;9.95;53.74;100288.75;5051005;28;20048;-80
2021/11/30 06:42:59;;;;;;;3.88;2.60;;;;;;;9.98;53.70;100287.63;5068431;28;20084;-80
2021/11/30 06:45:26;;;;;;;3.38;2.50;;;;;;;10.01;53.75;100279.28;5045617;28;20041;-80
2021/11/30 06:47:53;;;;;;;3.15;2.30;;;;;;;10.02;53.89;100286.44;5047147;28;20482;-80
2021/11/30 06:50:19;;;;;;;4.30;2.67;;;;;;;10.06;53.77;100285.22;5033308;28;20049;-80
2021/11/30 06:52:48;;;;;;;3.30;2.08;;;;;;;10.07;53.52;100285.09;5047683;28;20087;-80
2021/11/30 06:55:15;;;;;;;4.15;2.38;;;;;;;10.12;53.87;100268.50;5062601;28;20140;-80
2021/11/30 06:57:42;;;;;;;3.70;2.58;;;;;;;10.14;53.82;100285.50;5069868;28;20096;-80
2021/11/30 07:00:12;;;;;;;4.45;2.83;;;;;;;10.18;53.92;100277.09;5080657;28;20500;-81
2021/11/30 07:02:39;;;;;;;4.55;2.63;;;;;;;10.19;53.74;100276.09;5068015;28;20079;-80
2021/11/30 07:05:19;;;;;;;4.35;2.70;;;;;;;10.22;53.93;100277.69;5050263;28;20040;-80
2021/11/30 07:07:56;;;;;;;3.88;2.90;;;;;;;10.25;53.80;100269.34;5049295;28;20052;-80
2021/11/30 07:15:48;;;;;;;3.70;2.67;;;;;;;10.30;54.12;100269.84;5056979;28;20053;-80
2021/11/30 07:18:15;;;;;;;3.97;2.97;;;;;;;10.30;53.94;100265.28;5028454;28;20459;-80
2021/11/30 07:20:43;;;;;;;4.13;3.00;;;;;;;10.36;53.97;100263.13;5044006;28;20118;-80
2021/11/30 07:23:11;;;;;;;4.50;2.95;;;;;;;10.39;54.20;100271.00;5057004;28;20784;-79
2021/11/30 07:25:39;;;;;;;3.90;3.08;;;;;;;10.41;54.24;100259.06;5062167;28;20094;-79
2021/11/30 07:28:05;;;;;;;4.25;3.20;;;;;;;10.43;54.12;100246.25;5047721;28;20056;-79
2021/11/30 07:30:33;;;;;;;4.03;3.20;;;;;;;10.46;54.31;100248.72;5067529;28;20487;-79
2021/11/30 07:33:03;;;;;;;3.95;2.90;;;;;;;10.50;54.53;100252.09;5067873;28;20079;-80
2021/11/30 07:35:30;;;;;;;4.32;2.88;;;;;;;10.49;54.07;100251.22;5059264;28;20048;-79
2021/11/30 07:37:57;;;;;;;4.07;2.97;;;;;;;10.53;54.19;100254.56;5073051;28;20063;-79
2021/11/30 07:40:24;;;;;;;3.85;2.70;;;;;;;10.56;54.43;100251.59;5055971;28;20098;-79
2021/11/30 07:42:51;;;;;;;4.72;2.53;;;;;;;10.57;54.27;100251.50;5071184;28;20048;-79
2021/11/30 07:45:20;;;;;;;3.53;2.50;;;;;;;10.59;54.69;100249.53;5062038;28;20143;-79
2021/11/30 07:47:50;;;;;;;4.28;3.00;;;;;;;10.62;54.65;100246.56;5050310;28;20500;-79
2021/11/30 07:50:17;;;;;;;3.70;2.60;;;;;;;10.62;54.38;100246.56;5063728;28;20453;-78
2021/11/30 07:52:45;;;;;;;3.75;2.60;;;;;;;10.65;54.57;100250.91;5064261;28;20080;-79
2021/11/30 07:55:18;;;;;;;3.33;2.53;;;;;;;10.70;54.65;100251.44;5046496;28;20044;-80
2021/11/30 07:57:48;;;;;;;4.00;2.78;;;;;;;10.71;54.79;100255.03;5064148;28;20579;-81
2021/11/30 08:00:17;;;;;;;3.35;2.55;;;;;;;10.75;54.69;100242.91;5070610;28;20486;-81
2021/11/30 08:02:45;;;;;;;4.20;3.08;;;;;;;10.75;54.48;100254.66;5064634;28;20063;-80
2021/11/30 08:05:13;;;;;;;4.18;3.03;;;;;;;10.81;54.40;100256.00;5042149;28;20110;-80
2021/11/30 08:07:43;;;;;;;4.32;3.00;;;;;;;10.82;54.86;100264.06;5041744;28;20377;-80
2021/11/30 08:10:17;;;;;;;4.03;3.15;;;;;;;10.81;54.39;100261.44;5046455;28;20063;-78
2021/11/30 08:12:44;;;;;;;4.53;2.95;;;;;;;10.82;54.64;100250.47;5047377;28;20052;-78
2021/11/30 08:15:13;;;;;;;4.95;3.08;;;;;;;10.88;54.69;100258.13;5058086;28;20554;-80
2021/11/30 08:17:58;;;;;;;4.75;3.30;;;;;;;10.88;54.65;100257.25;5054176;28;20064;-79
2021/11/30 08:20:24;;;;;;;4.40;2.85;;;;;;;10.89;54.75;100253.56;5060380;28;20488;-80
2021/11/30 08:22:51;;;;;;;3.53;2.63;;;;;;;10.91;54.48;100255.19;5041749;28;20111;-80
2021/11/30 08:25:18;;;;;;;4.10;2.88;;;;;;;10.93;54.88;100261.38;5060391;28;20090;-80
2021/11/30 08:27:44;;;;;;;4.10;2.92;;;;;;;10.96;54.77;100261.13;5066822;28;20472;-79
2021/11/30 08:30:11;;;;;;;3.83;2.83;;;;;;;10.98;54.68;100253.72;5075967;28;20106;-79
2021/11/30 08:32:40;;;;;;;4.05;2.85;;;;;;;10.99;54.86;100260.03;5051787;28;20045;-79
2021/11/30 08:35:08;;;;;;;4.43;2.90;;;;;;;11.03;54.64;100261.53;5070460;28;20086;-79
2021/11/30 08:37:36;;;;;;;3.47;2.58;;;;;;;11.03;54.77;100258.81;5067441;28;20506;-80
2021/11/30 08:40:07;;;;;;;3.22;2.40;;;;;;;11.06;54.63;100247.69;5052883;28;20052;-79
2021/11/30 08:42:34;;;;;;;4.28;2.65;;;;;;;11.07;54.94;100244.00;5069512;28;20107;-79
2021/11/30 08:45:00;;;;;;;4.32;2.75;;;;;;;11.10;54.73;100251.91;5060215;28;20071;-79
2021/11/30 08:47:27;;;;;;;3.78;2.35;;;;;;;11.13;54.90;100248.06;5036859;28;20040;-79
2021/11/30 08:49:54;;;;;;;3.85;2.40;;;;;;;11.13;55.18;100243.50;5047218;28;20062;-79
2021/11/30 08:52:26;;;;;;;3.75;2.10;;;;;;;11.16;55.14;100254.13;5034933;28;20045;-79
2021/11/30 08:54:54;;;;;;;3.72;2.47;;;;;;;11.18;55.00;100256.75;5049335;28;20307;-78
2021/11/30 08:57:23;;;;;;;3.35;2.40;;;;;;;11.21;55.00;100238.31;5068692;28;20052;-79
2021/11/30 08:59:50;;;;;;;3.53;2.10;;;;;;;11.24;54.87;100246.25;5064267;28;20087;-79
2021/11/30 09:02:17;;;;;;;3.30;2.25;;;;;;;11.27;54.85;100242.44;5068394;28;20083;-79
2021/11/30 09:04:44;;;;;;;2.95;1.88;;;;;;;11.28;55.02;100227.84;5042972;28;20084;-79
2021/11/30 09:07:11;;;;;;;3.67;2.08;;;;;;;11.30;55.37;100229.44;5064808;28;20127;-79
2021/11/30 09:09:38;;;;;;;3.65;2.20;;;;;;;11.33;54.93;100231.94;5048963;28;20122;-79
2021/11/30 09:12:05;;;;;;;3.08;1.98;;;;;;;11.35;55.31;100235.41;5049045;28;20102;-79
2021/11/30 09:14:32;;;;;;;3.10;1.92;;;;;;;11.38;55.18;100235.13;5032528;28;20315;-79
2021/11/30 09:16:59;;;;;;;3.30;1.90;;;;;;;11.41;55.28;100231.31;5063526;28;20344;-79
2021/11/30 09:19:25;;;;;;;4.25;1.92;;;;;;;11.43;55.39;100216.63;5045680;28;20071;-79
2021/11/30 09:21:53;;;;;;;3.15;2.10;;;;;;;11.47;54.93;100233.53;5043922;28;20061;-79
2021/11/30 09:24:22;;;;;;;3.28;1.90;;;;;;;11.49;55.50;100238.84;5069771;28;20202;-79
2021/11/30 09:26:49;;;;;;;2.90;1.95;;;;;;;11.51;55.03;100231.44;5054674;28;20325;-79
2021/11/30 09:29:16;;;;;;;3.00;1.92;;;;;;;11.54;55.25;100242.91;5065205;28;20074;-79
2021/11/30 09:31:43;;;;;;;3.25;2.00;;;;;;;11.55;55.19;100231.06;5066111;28;20048;-79
2021/11/30 09:34:10;;;;;;;3.15;1.98;;;;;;;11.58;55.38;100235.38;5069276;28;20044;-79
2021/11/30 09:36:37;;;;;;;3.90;1.75;;;;;;;11.60;55.28;100230.69;5050589;28;20068;-79
2021/11/30 09:39:06;;;;;;;2.60;1.60;;;;;;;11.62;55.42;100229.56;5051226;28;20470;-79
2021/11/30 09:41:34;;;;;;;3.58;1.83;;;;;;;11.67;55.36;100240.94;5068412;28;20104;-79
2021/11/30 09:44:03;;;;;;;2.50;1.77;;;;;;;11.68;55.45;100229.09;5066325;28;20041;-79
2021/11/30 09:46:30;;;;;;;4.05;2.25;;;;;;;11.72;55.14;100229.69;5054102;28;20048;-79
2021/11/30 09:48:57;;;;;;;2.90;1.88;;;;;;;11.75;55.40;100229.47;5066613;28;20056;-79
2021/11/30 09:51:25;;;;;;;2.85;1.90;;;;;;;11.78;55.17;100230.06;5037564;28;20049;-79
2021/11/30 09:53:51;;;;;;;2.83;2.00;;;;;;;11.79;55.20;100211.91;5051216;28;20053;-80
2021/11/30 09:56:18;;;;;;;2.70;1.77;;;;;;;11.82;55.57;100212.53;5051352;28;20107;-79
2021/11/30 09:58:45;;;;;;;3.75;2.10;;;;;;;11.86;55.64;100213.13;5085642;28;20047;-79
2021/11/30 10:01:12;;;;;;;3.15;1.98;;;;;;;11.88;55.25;100215.72;5050384;28;20052;-80
2021/11/30 10:03:41;;;;;;;3.10;1.85;;;;;;;11.90;55.24;100209.19;5040571;28;20053;-79
2021/11/30 10:06:09;;;;;;;4.50;2.08;;;;;;;11.94;55.46;100213.34;5037730;28;20049;-79
2021/11/30 10:08:50;;;;;;;3.63;2.17;;;;;;;11.97;55.36;100215.84;5063172;28;20416;-80
2021/11/30 10:11:40;;;;;;;4.35;2.28;;;;;;;11.98;56.04;100214.84;5054630;28;20078;-79
2021/11/30 10:14:12;;;;;;;3.15;2.10;;;;;;;11.99;55.63;100216.59;5035261;28;20060;-80
2021/11/30 10:16:41;;;;;;;2.80;2.00;;;;;;;12.02;55.64;100223.63;5050864;28;20053;-79
2021/11/30 10:19:08;;;;;;;3.78;2.60;;;;;;;12.02;55.33;100219.06;5064738;28;20060;-79
2021/11/30 10:21:35;;;;;;;3.03;2.05;;;;;;;12.05;55.20;100216.06;5031647;28;20048;-79
2021/11/30 10:24:06;;;;;;;3.72;2.50;;;;;;;12.08;55.63;100225.84;5051250;28;20121;-79
2021/11/30 10:26:39;;;;;;;3.30;2.20;;;;;;;12.11;55.82;100225.56;5062497;28;20469;-79
2021/11/30 10:29:10;;;;;;;3.03;2.00;;;;;;;12.13;55.50;100234.47;5061158;28;20414;-79
2021/11/30 10:31:43;;;;;;;2.95;2.10;;;;;;;12.14;55.87;100222.59;5050708;28;20491;-79
2021/11/30 10:34:15;;;;;;;;;;;;;;;11.92;56.15;100231.69;5069757;28;20079;-79
2021/11/30 10:37:03;;;;;;;3.67;1.80;;;;;;;12.12;55.50;100222.72;5049787;28;20374;-79
2021/11/30 10:39:34;;;;;;;2.53;1.63;;;;;;;12.17;55.90;100217.78;5053369;28;20308;-79
2021/11/30 10:42:13;;;;;;;2.95;1.88;;;;;;;12.23;55.65;100218.25;5040449;28;20068;-79
2021/11/30 10:44:40;;;;;;;2.47;1.73;;;;;;;12.20;55.45;100227.53;5049491;28;20106;-79
2021/11/30 10:47:18;;;;;;;2.67;1.80;;;;;;;12.25;56.06;100227.16;5047098;28;20581;-78
2021/11/30 10:49:54;;;;;;;2.70;1.60;;;;;;;12.26;56.03;100215.28;5050205;28;20092;-79
2021/11/30 10:52:30;;;;;;;2.67;1.70;;;;;;;12.29;55.92;100223.16;5061221;28;20044;-79
2021/11/30 10:55:08;;;;;;;2.30;1.55;;;;;;;12.29;56.53;100209.56;5051442;28;20466;-79
2021/11/30 10:57:36;;;;;;;2.00;1.35;;;;;;;12.28;55.69;100225.03;5066956;28;20346;-79
2021/11/30 11:00:08;;;;;;;3.33;1.70;;;;;;;12.34;55.80;100215.50;5071065;28;20597;-79
2021/11/30 11:03:13;;;;;;;2.38;1.60;;;;;;;12.37;56.42;100212.50;5046407;28;20057;-79
2021/11/30 11:05:44;;;;;;;2.25;1.50;;;;;;;12.33;56.20;100220.06;5051627;28;20052;-79
2021/11/30 11:08:17;;;;;;;2.67;1.50;;;;;;;12.39;55.95;100219.56;5052512;28;20102;-79
2021/11/30 11:10:45;;;;;;;2.75;1.50;;;;;;;12.41;56.03;100214.84;5054547;28;20105;-78
2021/11/30 11:13:26;;;;;;;2.40;1.60;;;;;;;12.44;56.14;100220.00;5053272;28;20097;-79
2021/11/30 11:15:58;;;;;;;2.33;1.58;;;;;;;12.47;56.27;100221.63;5062897;28;20087;-79
2021/11/30 11:18:27;;;;;;;2.90;1.52;;;;;;;12.46;56.08;100218.03;5072069;28;20382;-78
2021/11/30 11:21:23;;;;;;;3.22;1.60;;;;;;;12.51;56.47;100223.97;5055957;28;20521;-78
2021/11/30 11:24:10;;;;;;;2.55;1.60;;;;;;;12.52;56.61;100222.94;5063530;28;20091;-79
2021/11/30 11:26:39;;;;;;;2.20;1.38;;;;;;;12.55;56.20;100219.09;5071003;28;20049;-79
2021/11/30 11:29:16;;;;;;;2.80;1.70;;;;;;;12.59;56.43;100215.16;5065993;28;20052;-79
2021/11/30 11:31:47;;;;;;;2.58;1.67;;;;;;;12.61;56.36;100226.75;5051365;28;20103;-79
2021/11/30 11:34:16;;;;;;;3.40;1.40;;;;;;;12.62;56.32;100214.88;5048234;28;20056;-79
2021/11/30 11:36:44;;;;;;;2.15;1.50;;;;;;;12.64;56.14;100218.31;5069544;28;20076;-79
2021/11/30 11:39:14;;;;;;;1.80;1.30;;;;;;;12.67;55.87;100211.75;5069470;28;20200;-79
2021/11/30 11:41:41;;;;;;;2.63;1.50;;;;;;;12.70;55.85;100212.34;5052864;28;20106;-78
2021/11/30 11:44:08;;;;;;;1.92;1.40;;;;;;;12.71;56.00;100218.66;5071660;28;20053;-78
2021/11/30 11:46:38;;;;;;;2.15;1.52;;;;;;;12.73;55.88;100230.28;5039447;28;20096;-79
2021/11/30 11:49:09;;;;;;;2.15;1.30;;;;;;;12.73;55.90;100228.44;5060243;28;20044;-79
2021/11/30 11:51:37;;;;;;;2.03;1.40;;;;;;;12.78;56.12;100231.63;5056847;28;20110;-79
2021/11/30 11:54:07;;;;;;;2.25;1.48;;;;;;;12.79;56.19;100224.31;5053633;28;20052;-78
2021/11/30 11:56:36;;;;;;;1.75;1.30;;;;;;;12.81;56.03;100231.38;5058218;28;20094;-79